DLH7FL EDDM-EDDF
Flight info
| Callsign | DLH7FL |
|---|---|
| Flight time | 0h 45m |
| Altitude | 24000 |
| Route | GIVMI6E GIVMI Y101 ERNAS T161 DEBHI DEBHI1C |
| Aircraft | A321/M-SDE2E3FGIJ1LORWXYZ/HB1 |
Departure
| Time | 2026-04-17 07:26 |
|---|---|
| Airport | Munich Airport (EDDM) |
Arrival
| Time | 2026-04-17 08:11 |
|---|---|
| Airport | Frankfurt Main Airport (EDDF) |
| Time | Latitude | Longitude | Altitude | Speed | Heading |
|---|---|---|---|---|---|
| 2026-04-17 07:01 | 48.35744 | 11.79932 | 1486 ft | 0 kts | 263° |
| 2026-04-17 07:10 | 48.35745 | 11.79947 | 1485 ft | 4 kts | 263° |
| 2026-04-17 07:11 | 48.35748 | 11.79987 | 1475 ft | 4 kts | 263° |
| 2026-04-17 07:11 | 48.35751 | 11.80027 | 1477 ft | 4 kts | 255° |
| 2026-04-17 07:11 | 48.35763 | 11.80058 | 1473 ft | 4 kts | 208° |
| 2026-04-17 07:11 | 48.35785 | 11.80066 | 1476 ft | 1 kts | 173° |
| 2026-04-17 07:12 | 48.35806 | 11.80062 | 1481 ft | 1 kts | 173° |
| 2026-04-17 07:12 | 48.35807 | 11.80062 | 1481 ft | 0 kts | 173° |
| 2026-04-17 07:16 | 48.35801 | 11.80063 | 1479 ft | 3 kts | 173° |
| 2026-04-17 07:16 | 48.35743 | 11.80073 | 1474 ft | 13 kts | 173° |
| 2026-04-17 07:16 | 48.35635 | 11.80103 | 1475 ft | 17 kts | 174° |
| 2026-04-17 07:17 | 48.35498 | 11.80125 | 1482 ft | 21 kts | 174° |
| 2026-04-17 07:17 | 48.35349 | 11.80162 | 1484 ft | 22 kts | 173° |
| 2026-04-17 07:17 | 48.35131 | 11.80101 | 1478 ft | 19 kts | 262° |
| 2026-04-17 07:18 | 48.35115 | 11.79893 | 1483 ft | 21 kts | 263° |
| 2026-04-17 07:18 | 48.35092 | 11.79689 | 1476 ft | 18 kts | 234° |
| 2026-04-17 07:18 | 48.34971 | 11.79673 | 1475 ft | 20 kts | 172° |
| 2026-04-17 07:18 | 48.34852 | 11.79694 | 1481 ft | 13 kts | 176° |
| 2026-04-17 07:19 | 48.34793 | 11.79577 | 1485 ft | 20 kts | 265° |
| 2026-04-17 07:19 | 48.34775 | 11.79342 | 1485 ft | 25 kts | 263° |
| 2026-04-17 07:19 | 48.34754 | 11.79077 | 1485 ft | 26 kts | 263° |
| 2026-04-17 07:19 | 48.34733 | 11.78805 | 1485 ft | 26 kts | 263° |
| 2026-04-17 07:20 | 48.34713 | 11.78528 | 1485 ft | 27 kts | 263° |
| 2026-04-17 07:20 | 48.34690 | 11.78246 | 1485 ft | 27 kts | 263° |
| 2026-04-17 07:20 | 48.34667 | 11.77961 | 1485 ft | 27 kts | 263° |
| 2026-04-17 07:20 | 48.34644 | 11.77674 | 1478 ft | 28 kts | 263° |
| 2026-04-17 07:21 | 48.34622 | 11.77384 | 1474 ft | 28 kts | 263° |
| 2026-04-17 07:21 | 48.34600 | 11.77089 | 1485 ft | 29 kts | 263° |
| 2026-04-17 07:21 | 48.34578 | 11.76791 | 1482 ft | 29 kts | 263° |
| 2026-04-17 07:21 | 48.34555 | 11.76489 | 1481 ft | 29 kts | 263° |
| 2026-04-17 07:22 | 48.34531 | 11.76184 | 1485 ft | 29 kts | 263° |
| 2026-04-17 07:22 | 48.34507 | 11.75877 | 1472 ft | 30 kts | 263° |
| 2026-04-17 07:22 | 48.34484 | 11.75568 | 1477 ft | 30 kts | 263° |
| 2026-04-17 07:22 | 48.34461 | 11.75275 | 1481 ft | 23 kts | 263° |
| 2026-04-17 07:23 | 48.34443 | 11.75100 | 1478 ft | 14 kts | 245° |
| 2026-04-17 07:23 | 48.34357 | 11.75070 | 1478 ft | 14 kts | 173° |
| 2026-04-17 07:23 | 48.34252 | 11.75089 | 1475 ft | 16 kts | 173° |
| 2026-04-17 07:23 | 48.34139 | 11.75110 | 1474 ft | 17 kts | 173° |
| 2026-04-17 07:24 | 48.34071 | 11.75136 | 1478 ft | 11 kts | 133° |
| 2026-04-17 07:24 | 48.34079 | 11.75226 | 1479 ft | 9 kts | 78° |
| 2026-04-17 07:24 | 48.34080 | 11.75244 | 1479 ft | 2 kts | 84° |
| 2026-04-17 07:24 | 48.34080 | 11.75248 | 1479 ft | 0 kts | 84° |
| 2026-04-17 07:25 | 48.34080 | 11.75253 | 1481 ft | 1 kts | 84° |
| 2026-04-17 07:25 | 48.34082 | 11.75280 | 1485 ft | 6 kts | 84° |
| 2026-04-17 07:25 | 48.34110 | 11.75646 | 1477 ft | 73 kts | 83° |
| 2026-04-17 07:25 | 48.34196 | 11.76768 | 1477 ft | 140 kts | 83° |
| 2026-04-17 07:26 | 48.34322 | 11.78429 | 1857 ft | 160 kts | 83° |
| 2026-04-17 07:26 | 48.34449 | 11.80080 | 2687 ft | 160 kts | 84° |
| 2026-04-17 07:26 | 48.34584 | 11.81815 | 3166 ft | 177 kts | 84° |
| 2026-04-17 07:26 | 48.34736 | 11.83763 | 3488 ft | 199 kts | 84° |
| 2026-04-17 07:27 | 48.35187 | 11.85825 | 3730 ft | 224 kts | 53° |
| 2026-04-17 07:27 | 48.36547 | 11.87166 | 4008 ft | 252 kts | 16° |
| 2026-04-17 07:27 | 48.38341 | 11.87411 | 4542 ft | 266 kts | 352° |
| 2026-04-17 07:27 | 48.40027 | 11.86241 | 5270 ft | 274 kts | 317° |
| 2026-04-17 07:28 | 48.41242 | 11.84014 | 6044 ft | 277 kts | 309° |
| 2026-04-17 07:28 | 48.42500 | 11.81807 | 6849 ft | 279 kts | 313° |
| 2026-04-17 07:28 | 48.43845 | 11.79695 | 7621 ft | 280 kts | 315° |
| 2026-04-17 07:28 | 48.45231 | 11.77616 | 8410 ft | 282 kts | 316° |
| 2026-04-17 07:29 | 48.46635 | 11.75532 | 9195 ft | 284 kts | 316° |
| 2026-04-17 07:29 | 48.48041 | 11.73440 | 9991 ft | 286 kts | 316° |
| 2026-04-17 07:29 | 48.49455 | 11.71319 | 10691 ft | 288 kts | 315° |
| 2026-04-17 07:29 | 48.50871 | 11.69174 | 11396 ft | 289 kts | 315° |
| 2026-04-17 07:30 | 48.52286 | 11.67018 | 12111 ft | 290 kts | 315° |
| 2026-04-17 07:30 | 48.53701 | 11.64848 | 12863 ft | 291 kts | 315° |
| 2026-04-17 07:30 | 48.55122 | 11.62666 | 13595 ft | 292 kts | 315° |
| 2026-04-17 07:30 | 48.56553 | 11.60473 | 14293 ft | 293 kts | 315° |
| 2026-04-17 07:31 | 48.57968 | 11.58220 | 14724 ft | 304 kts | 312° |
| 2026-04-17 07:31 | 48.59408 | 11.55740 | 14849 ft | 323 kts | 311° |
| 2026-04-17 07:31 | 48.60895 | 11.53070 | 15057 ft | 338 kts | 310° |
| 2026-04-17 07:31 | 48.62410 | 11.50311 | 15534 ft | 343 kts | 310° |
| 2026-04-17 07:32 | 48.63944 | 11.47519 | 16093 ft | 347 kts | 310° |
| 2026-04-17 07:32 | 48.65495 | 11.44714 | 16665 ft | 349 kts | 310° |
| 2026-04-17 07:32 | 48.67043 | 11.41935 | 17225 ft | 352 kts | 310° |
| 2026-04-17 07:32 | 48.68657 | 11.39056 | 17789 ft | 355 kts | 310° |
| 2026-04-17 07:33 | 48.70371 | 11.36365 | 18314 ft | 357 kts | 320° |
| 2026-04-17 07:33 | 48.72398 | 11.34157 | 18799 ft | 360 kts | 326° |
| 2026-04-17 07:33 | 48.74493 | 11.32058 | 19281 ft | 362 kts | 326° |
| 2026-04-17 07:33 | 48.76596 | 11.29939 | 19794 ft | 364 kts | 326° |
| 2026-04-17 07:34 | 48.78704 | 11.27804 | 20286 ft | 365 kts | 326° |
| 2026-04-17 07:34 | 48.80822 | 11.25655 | 20785 ft | 367 kts | 326° |
| 2026-04-17 07:34 | 48.82947 | 11.23495 | 21267 ft | 368 kts | 326° |
| 2026-04-17 07:34 | 48.85013 | 11.21191 | 21723 ft | 370 kts | 319° |
| 2026-04-17 07:35 | 48.86920 | 11.18540 | 22182 ft | 372 kts | 317° |
| 2026-04-17 07:35 | 48.88827 | 11.15880 | 22649 ft | 374 kts | 317° |
| 2026-04-17 07:35 | 48.90749 | 11.13204 | 23096 ft | 375 kts | 318° |
| 2026-04-17 07:35 | 48.92652 | 11.10550 | 23535 ft | 377 kts | 318° |
| 2026-04-17 07:36 | 48.94591 | 11.07846 | 23962 ft | 379 kts | 318° |
| 2026-04-17 07:36 | 48.96538 | 11.05126 | 24205 ft | 380 kts | 318° |
| 2026-04-17 07:36 | 48.98471 | 11.02422 | 24255 ft | 371 kts | 317° |
| 2026-04-17 07:36 | 49.00351 | 10.99787 | 24270 ft | 366 kts | 317° |
| 2026-04-17 07:37 | 49.02217 | 10.97173 | 24271 ft | 363 kts | 317° |
| 2026-04-17 07:37 | 49.04075 | 10.94562 | 24271 ft | 363 kts | 317° |
| 2026-04-17 07:37 | 49.05926 | 10.91957 | 24272 ft | 363 kts | 317° |
| 2026-04-17 07:37 | 49.07778 | 10.89347 | 24272 ft | 363 kts | 317° |
| 2026-04-17 07:38 | 49.09630 | 10.86733 | 24276 ft | 363 kts | 317° |
| 2026-04-17 07:38 | 49.11481 | 10.84118 | 24272 ft | 363 kts | 317° |
| 2026-04-17 07:38 | 49.13334 | 10.81499 | 24283 ft | 362 kts | 317° |
| 2026-04-17 07:38 | 49.15178 | 10.78883 | 24282 ft | 362 kts | 317° |
| 2026-04-17 07:39 | 49.17026 | 10.76260 | 24281 ft | 362 kts | 317° |
| 2026-04-17 07:39 | 49.18874 | 10.73640 | 24281 ft | 362 kts | 317° |
| 2026-04-17 07:39 | 49.20707 | 10.70989 | 24282 ft | 363 kts | 316° |
| 2026-04-17 07:39 | 49.22490 | 10.68263 | 24257 ft | 363 kts | 315° |
| 2026-04-17 07:40 | 49.24245 | 10.65485 | 24256 ft | 363 kts | 314° |
| 2026-04-17 07:40 | 49.25984 | 10.62690 | 24272 ft | 363 kts | 314° |
| 2026-04-17 07:40 | 49.27728 | 10.59885 | 24273 ft | 364 kts | 314° |
| 2026-04-17 07:40 | 49.29475 | 10.57082 | 24274 ft | 364 kts | 314° |
| 2026-04-17 07:41 | 49.31223 | 10.54288 | 24272 ft | 364 kts | 314° |
| 2026-04-17 07:41 | 49.32980 | 10.51495 | 24273 ft | 364 kts | 314° |
| 2026-04-17 07:41 | 49.34741 | 10.48703 | 24275 ft | 364 kts | 314° |
| 2026-04-17 07:41 | 49.36410 | 10.45853 | 24246 ft | 353 kts | 308° |
| 2026-04-17 07:42 | 49.37836 | 10.42820 | 23817 ft | 349 kts | 306° |
| 2026-04-17 07:42 | 49.39223 | 10.39799 | 23420 ft | 343 kts | 306° |
| 2026-04-17 07:42 | 49.40573 | 10.36829 | 23078 ft | 336 kts | 306° |
| 2026-04-17 07:42 | 49.41452 | 10.34885 | 22855 ft | 334 kts | 306° |
| 2026-04-17 07:43 | 49.42777 | 10.31961 | 22514 ft | 333 kts | 306° |
| 2026-04-17 07:43 | 49.44103 | 10.29055 | 22169 ft | 332 kts | 306° |
| 2026-04-17 07:43 | 49.45424 | 10.26157 | 21829 ft | 330 kts | 306° |
| 2026-04-17 07:43 | 49.46737 | 10.23270 | 21499 ft | 329 kts | 306° |
| 2026-04-17 07:44 | 49.48045 | 10.20390 | 21160 ft | 328 kts | 306° |
| 2026-04-17 07:44 | 49.49345 | 10.17519 | 20824 ft | 327 kts | 305° |
| 2026-04-17 07:44 | 49.50640 | 10.14656 | 20494 ft | 325 kts | 305° |
| 2026-04-17 07:44 | 49.51929 | 10.11802 | 20169 ft | 324 kts | 305° |
| 2026-04-17 07:45 | 49.53213 | 10.08958 | 19841 ft | 323 kts | 305° |
| 2026-04-17 07:45 | 49.54491 | 10.06128 | 19496 ft | 321 kts | 305° |
| 2026-04-17 07:45 | 49.55763 | 10.03308 | 19179 ft | 320 kts | 305° |
| 2026-04-17 07:45 | 49.57029 | 10.00494 | 18856 ft | 319 kts | 305° |
| 2026-04-17 07:46 | 49.58288 | 9.97694 | 18526 ft | 318 kts | 305° |
| 2026-04-17 07:46 | 49.59545 | 9.94900 | 18170 ft | 317 kts | 305° |
| 2026-04-17 07:46 | 49.60797 | 9.92115 | 17846 ft | 316 kts | 305° |
| 2026-04-17 07:46 | 49.62044 | 9.89339 | 17528 ft | 315 kts | 305° |
| 2026-04-17 07:47 | 49.63286 | 9.86566 | 17207 ft | 313 kts | 305° |
| 2026-04-17 07:47 | 49.64520 | 9.83805 | 16890 ft | 312 kts | 305° |
| 2026-04-17 07:47 | 49.65749 | 9.81050 | 16566 ft | 311 kts | 305° |
| 2026-04-17 07:47 | 49.66954 | 9.78349 | 16259 ft | 309 kts | 305° |
| 2026-04-17 07:48 | 49.68171 | 9.75623 | 15950 ft | 308 kts | 305° |
| 2026-04-17 07:48 | 49.69385 | 9.72906 | 15631 ft | 307 kts | 305° |
| 2026-04-17 07:48 | 49.70608 | 9.70161 | 15309 ft | 306 kts | 305° |
| 2026-04-17 07:48 | 49.71810 | 9.67461 | 14999 ft | 304 kts | 305° |
| 2026-04-17 07:49 | 49.73007 | 9.64770 | 14693 ft | 303 kts | 305° |
| 2026-04-17 07:49 | 49.74184 | 9.62125 | 14390 ft | 302 kts | 305° |
| 2026-04-17 07:49 | 49.75369 | 9.59455 | 14080 ft | 301 kts | 305° |
| 2026-04-17 07:49 | 49.76549 | 9.56795 | 13753 ft | 299 kts | 305° |
| 2026-04-17 07:50 | 49.77724 | 9.54141 | 13439 ft | 299 kts | 305° |
| 2026-04-17 07:50 | 49.78893 | 9.51489 | 13133 ft | 298 kts | 304° |
| 2026-04-17 07:50 | 49.80060 | 9.48842 | 12830 ft | 298 kts | 304° |
| 2026-04-17 07:50 | 49.81226 | 9.46194 | 12536 ft | 297 kts | 304° |
| 2026-04-17 07:51 | 49.82388 | 9.43557 | 12230 ft | 296 kts | 304° |
| 2026-04-17 07:51 | 49.83542 | 9.40931 | 11928 ft | 295 kts | 304° |
| 2026-04-17 07:51 | 49.84695 | 9.38310 | 11628 ft | 294 kts | 304° |
| 2026-04-17 07:51 | 49.85826 | 9.35675 | 11330 ft | 293 kts | 300° |
| 2026-04-17 07:52 | 49.86624 | 9.32781 | 11124 ft | 292 kts | 287° |
| 2026-04-17 07:52 | 49.87193 | 9.29750 | 11029 ft | 294 kts | 287° |
| 2026-04-17 07:52 | 49.87770 | 9.26715 | 10922 ft | 294 kts | 287° |
| 2026-04-17 07:52 | 49.88351 | 9.23682 | 10804 ft | 293 kts | 287° |
| 2026-04-17 07:53 | 49.88934 | 9.20645 | 10685 ft | 293 kts | 287° |
| 2026-04-17 07:53 | 49.89514 | 9.17621 | 10574 ft | 293 kts | 287° |
| 2026-04-17 07:53 | 49.90095 | 9.14598 | 10453 ft | 292 kts | 287° |
| 2026-04-17 07:53 | 49.90670 | 9.11579 | 10338 ft | 292 kts | 287° |
| 2026-04-17 07:54 | 49.91239 | 9.08579 | 10113 ft | 286 kts | 287° |
| 2026-04-17 07:54 | 49.91795 | 9.05652 | 10045 ft | 283 kts | 286° |
| 2026-04-17 07:54 | 49.92350 | 9.02718 | 9976 ft | 284 kts | 286° |
| 2026-04-17 07:54 | 49.92902 | 8.99782 | 9861 ft | 283 kts | 286° |
| 2026-04-17 07:55 | 49.93464 | 8.96855 | 9737 ft | 283 kts | 289° |
| 2026-04-17 07:55 | 49.94424 | 8.94218 | 9620 ft | 282 kts | 311° |
| 2026-04-17 07:55 | 49.95949 | 8.92325 | 9504 ft | 283 kts | 333° |
| 2026-04-17 07:55 | 49.97825 | 8.91456 | 9356 ft | 284 kts | 354° |
| 2026-04-17 07:56 | 49.99797 | 8.91594 | 9237 ft | 285 kts | 10° |
| 2026-04-17 07:56 | 50.01667 | 8.92617 | 9107 ft | 286 kts | 29° |
| 2026-04-17 07:56 | 50.03213 | 8.94538 | 8969 ft | 287 kts | 49° |
| 2026-04-17 07:56 | 50.04250 | 8.97176 | 8852 ft | 287 kts | 68° |
| 2026-04-17 07:57 | 50.04943 | 9.00093 | 8718 ft | 287 kts | 70° |
| 2026-04-17 07:57 | 50.05622 | 9.03008 | 8588 ft | 287 kts | 70° |
| 2026-04-17 07:57 | 50.06298 | 9.05923 | 8458 ft | 286 kts | 70° |
| 2026-04-17 07:57 | 50.06974 | 9.08834 | 8333 ft | 286 kts | 70° |
| 2026-04-17 07:58 | 50.07650 | 9.11747 | 8204 ft | 286 kts | 70° |
| 2026-04-17 07:58 | 50.08326 | 9.14655 | 8077 ft | 286 kts | 70° |
| 2026-04-17 07:58 | 50.09003 | 9.17569 | 7946 ft | 285 kts | 70° |
| 2026-04-17 07:58 | 50.09676 | 9.20464 | 7817 ft | 284 kts | 70° |
| 2026-04-17 07:59 | 50.10347 | 9.23353 | 7699 ft | 284 kts | 70° |
| 2026-04-17 07:59 | 50.11019 | 9.26240 | 7559 ft | 283 kts | 70° |
| 2026-04-17 07:59 | 50.11690 | 9.29122 | 7444 ft | 282 kts | 70° |
| 2026-04-17 07:59 | 50.12356 | 9.31997 | 7318 ft | 282 kts | 70° |
| 2026-04-17 08:00 | 50.13019 | 9.34868 | 7193 ft | 282 kts | 70° |
| 2026-04-17 08:00 | 50.13681 | 9.37738 | 7059 ft | 281 kts | 70° |
| 2026-04-17 08:00 | 50.14342 | 9.40608 | 6947 ft | 281 kts | 70° |
| 2026-04-17 08:00 | 50.15224 | 9.43300 | 6821 ft | 279 kts | 50° |
| 2026-04-17 08:01 | 50.16724 | 9.45177 | 6697 ft | 278 kts | 24° |
| 2026-04-17 08:01 | 50.18583 | 9.45876 | 6575 ft | 276 kts | 359° |
| 2026-04-17 08:01 | 50.20445 | 9.45290 | 6437 ft | 274 kts | 334° |
| 2026-04-17 08:01 | 50.21966 | 9.43563 | 6315 ft | 271 kts | 309° |
| 2026-04-17 08:02 | 50.22884 | 9.41027 | 6187 ft | 269 kts | 285° |
| 2026-04-17 08:02 | 50.23053 | 9.38147 | 6056 ft | 267 kts | 261° |
| 2026-04-17 08:02 | 50.22538 | 9.35375 | 5936 ft | 267 kts | 249° |
| 2026-04-17 08:02 | 50.21898 | 9.32656 | 5802 ft | 267 kts | 249° |
| 2026-04-17 08:03 | 50.21269 | 9.29975 | 5676 ft | 267 kts | 249° |
| 2026-04-17 08:03 | 50.20636 | 9.27260 | 5552 ft | 267 kts | 249° |
| 2026-04-17 08:03 | 50.20006 | 9.24536 | 5423 ft | 266 kts | 249° |
| 2026-04-17 08:03 | 50.19381 | 9.21824 | 5298 ft | 266 kts | 249° |
| 2026-04-17 08:04 | 50.18755 | 9.19114 | 5180 ft | 265 kts | 249° |
| 2026-04-17 08:04 | 50.18128 | 9.16410 | 5051 ft | 265 kts | 249° |
| 2026-04-17 08:04 | 50.17500 | 9.13715 | 4923 ft | 264 kts | 249° |
| 2026-04-17 08:04 | 50.16875 | 9.11030 | 4795 ft | 263 kts | 249° |
| 2026-04-17 08:05 | 50.16249 | 9.08348 | 4653 ft | 263 kts | 249° |
| 2026-04-17 08:05 | 50.15624 | 9.05674 | 4538 ft | 263 kts | 249° |
| 2026-04-17 08:05 | 50.14998 | 9.03000 | 4403 ft | 262 kts | 249° |
| 2026-04-17 08:05 | 50.14376 | 9.00350 | 4281 ft | 256 kts | 249° |
| 2026-04-17 08:06 | 50.13772 | 8.97798 | 4150 ft | 245 kts | 249° |
| 2026-04-17 08:06 | 50.13196 | 8.95368 | 4040 ft | 233 kts | 248° |
| 2026-04-17 08:06 | 50.12648 | 8.93059 | 4010 ft | 221 kts | 249° |
| 2026-04-17 08:06 | 50.12134 | 8.90880 | 4013 ft | 211 kts | 248° |
| 2026-04-17 08:07 | 50.11629 | 8.88748 | 4010 ft | 209 kts | 248° |
| 2026-04-17 08:07 | 50.11123 | 8.86630 | 3993 ft | 209 kts | 248° |
| 2026-04-17 08:07 | 50.10621 | 8.84505 | 3813 ft | 208 kts | 248° |
| 2026-04-17 08:07 | 50.10123 | 8.82393 | 3557 ft | 207 kts | 248° |
| 2026-04-17 08:08 | 50.09629 | 8.80298 | 3287 ft | 204 kts | 248° |
| 2026-04-17 08:08 | 50.09153 | 8.78277 | 3018 ft | 195 kts | 248° |
| 2026-04-17 08:08 | 50.08692 | 8.76323 | 2759 ft | 189 kts | 248° |
| 2026-04-17 08:08 | 50.08243 | 8.74427 | 2503 ft | 183 kts | 248° |
| 2026-04-17 08:09 | 50.07817 | 8.72624 | 2271 ft | 170 kts | 248° |
| 2026-04-17 08:09 | 50.07412 | 8.70915 | 2050 ft | 166 kts | 248° |
| 2026-04-17 08:09 | 50.07014 | 8.69237 | 1817 ft | 164 kts | 248° |
| 2026-04-17 08:09 | 50.06620 | 8.67572 | 1596 ft | 164 kts | 249° |
| 2026-04-17 08:10 | 50.06238 | 8.65965 | 1373 ft | 152 kts | 249° |
| 2026-04-17 08:10 | 50.05880 | 8.64456 | 1173 ft | 147 kts | 249° |
| 2026-04-17 08:10 | 50.05528 | 8.62978 | 988 ft | 145 kts | 249° |
| 2026-04-17 08:10 | 50.05177 | 8.61505 | 789 ft | 145 kts | 250° |
| 2026-04-17 08:11 | 50.04835 | 8.60030 | 594 ft | 145 kts | 250° |
| 2026-04-17 08:11 | 50.04481 | 8.58556 | 410 ft | 146 kts | 249° |
| 2026-04-17 08:11 | 50.04146 | 8.57167 | 369 ft | 122 kts | 250° |
| 2026-04-17 08:11 | 50.03920 | 8.56219 | 359 ft | 45 kts | 250° |
| 2026-04-17 08:12 | 50.03883 | 8.55886 | 353 ft | 24 kts | 275° |
| 2026-04-17 08:12 | 50.03904 | 8.55684 | 348 ft | 13 kts | 279° |
| 2026-04-17 08:12 | 50.03941 | 8.55613 | 351 ft | 0 kts | 341° |
| 2026-04-17 08:13 | 50.03949 | 8.55609 | 350 ft | 5 kts | 343° |
| 2026-04-17 08:13 | 50.03993 | 8.55679 | 352 ft | 14 kts | 72° |
| 2026-04-17 08:13 | 50.04024 | 8.55830 | 350 ft | 15 kts | 72° |
| 2026-04-17 08:14 | 50.04112 | 8.56216 | 358 ft | 16 kts | 70° |
| 2026-04-17 08:14 | 50.04182 | 8.56272 | 354 ft | 12 kts | 343° |
| 2026-04-17 08:14 | 50.04256 | 8.56230 | 361 ft | 11 kts | 339° |
| 2026-04-17 08:14 | 50.04293 | 8.56167 | 360 ft | 11 kts | 267° |
| 2026-04-17 08:15 | 50.04334 | 8.56060 | 358 ft | 14 kts | 339° |
| 2026-04-17 08:15 | 50.04426 | 8.56035 | 358 ft | 13 kts | 32° |
| 2026-04-17 08:15 | 50.04466 | 8.56175 | 361 ft | 16 kts | 70° |
| 2026-04-17 08:15 | 50.04501 | 8.56320 | 359 ft | 9 kts | 70° |
| 2026-04-17 08:16 | 50.04508 | 8.56386 | 361 ft | 6 kts | 111° |
| 2026-04-17 08:16 | 50.04474 | 8.56416 | 360 ft | 4 kts | 155° |
| 2026-04-17 08:16 | 50.04458 | 8.56427 | 359 ft | 1 kts | 154° |
| 2026-04-17 08:16 | 50.04456 | 8.56429 | 359 ft | 0 kts | 154° |